Time;durP1;ratioP1;P1;durP2;ratioP2;P2;SDS_P1;SDS_P2;PMS_P1;PMS_P2;Temp;Humidity;BMP_temperature;BMP_pressure;BME280_temperature;BME280_humidity;BME280_pressure;Samples;Min_cycle;Max_cycle;Signal;HPM_P1;HPM_P2
2022/07/08 00:00:53;;;;;;;12.85;3.15;;;;;;;16.43;62.56;102922.72;5094299;27;20465;-59
2022/07/08 00:03:19;;;;;;;8.10;2.83;;;;;;;16.48;63.26;102924.19;5130999;27;20056;-59
2022/07/08 00:05:44;;;;;;;7.78;3.50;;;;;;;16.51;62.48;102924.03;5130992;27;20031;-60
2022/07/08 00:08:10;;;;;;;10.18;3.03;;;;;;;16.57;62.78;102937.13;5131460;28;20019;-59
2022/07/08 00:10:35;;;;;;;11.75;2.80;;;;;;;16.49;62.82;102931.28;5131414;28;20114;-59
2022/07/08 00:13:01;;;;;;;9.10;2.83;;;;;;;16.34;63.16;102930.31;5131169;28;20034;-59
2022/07/08 00:15:27;;;;;;;11.55;3.92;;;;;;;16.44;62.96;102936.06;5113467;28;20035;-59
2022/07/08 00:17:55;;;;;;;10.73;2.83;;;;;;;16.37;62.80;102921.22;5066281;27;20031;-59
2022/07/08 00:20:21;;;;;;;10.30;3.13;;;;;;;16.38;62.99;102932.81;5100793;27;20054;-60
2022/07/08 00:22:47;;;;;;;10.00;2.95;;;;;;;16.38;63.12;102930.16;5113359;27;20062;-59
2022/07/08 00:25:13;;;;;;;8.02;2.72;;;;;;;16.44;63.11;102930.69;5135845;27;20486;-60
2022/07/08 00:27:38;;;;;;;10.95;3.05;;;;;;;16.31;63.35;102929.63;5135050;27;20482;-59
2022/07/08 00:30:04;;;;;;;10.77;2.97;;;;;;;16.42;62.80;102937.09;5116888;27;20470;-59
2022/07/08 00:32:29;;;;;;;12.90;3.60;;;;;;;16.42;62.80;102932.59;5134799;27;20031;-59
2022/07/08 00:34:55;;;;;;;9.25;2.72;;;;;;;16.44;62.88;102922.66;5135634;27;20039;-59
2022/07/08 00:37:22;;;;;;;11.70;3.10;;;;;;;16.44;62.81;102936.06;5115647;27;20031;-59
2022/07/08 00:39:48;;;;;;;11.13;3.25;;;;;;;16.43;63.03;102930.75;5135367;27;20110;-59
2022/07/08 00:42:13;;;;;;;9.32;2.83;;;;;;;16.43;62.98;102934.31;5134710;27;20452;-59
2022/07/08 00:44:41;;;;;;;11.77;3.40;;;;;;;16.41;63.21;102938.91;5116550;27;20477;-59
2022/07/08 00:47:07;;;;;;;9.30;2.83;;;;;;;16.18;63.21;102926.72;5116273;27;20189;-59
2022/07/08 00:49:33;;;;;;;9.00;2.90;;;;;;;16.27;63.48;102938.78;5135090;27;20464;-59
2022/07/08 00:51:59;;;;;;;12.48;3.10;;;;;;;16.15;63.50;102939.44;5081177;27;20033;-59
2022/07/08 00:54:25;;;;;;;10.93;3.15;;;;;;;15.96;63.90;102937.72;5116985;27;20477;-59
2022/07/08 00:56:51;;;;;;;7.35;2.95;;;;;;;16.03;63.90;102947.22;5133699;27;20034;-59
2022/07/08 00:59:17;;;;;;;14.73;3.40;;;;;;;16.00;64.19;102951.84;5135172;27;20019;-59
2022/07/08 01:01:47;;;;;;;9.75;3.30;;;;;;;15.96;64.24;102948.47;5116398;27;20371;-59
2022/07/08 01:04:13;;;;;;;11.65;3.15;;;;;;;15.95;64.50;102943.19;5135019;27;20385;-59
2022/07/08 01:06:39;;;;;;;11.70;3.08;;;;;;;15.96;64.49;102944.91;5134135;27;20022;-59
2022/07/08 01:09:04;;;;;;;8.20;3.28;;;;;;;15.92;64.71;102952.25;5134477;27;20050;-59
2022/07/08 01:11:30;;;;;;;8.50;3.13;;;;;;;15.89;64.83;102941.69;5115370;27;20118;-59
2022/07/08 01:13:58;;;;;;;9.07;3.13;;;;;;;15.81;65.07;102952.81;5133879;27;20098;-59
2022/07/08 01:16:23;;;;;;;6.35;2.85;;;;;;;15.72;65.45;102953.28;5133856;27;20434;-59
2022/07/08 01:18:49;;;;;;;11.00;3.00;;;;;;;15.62;65.63;102934.09;5116252;27;20057;-59
2022/07/08 01:21:14;;;;;;;11.90;3.05;;;;;;;15.48;65.96;102939.28;5133827;27;20080;-59
2022/07/08 01:23:40;;;;;;;7.03;2.85;;;;;;;15.49;66.18;102934.75;5114925;27;20023;-59
2022/07/08 01:26:10;;;;;;;10.05;3.22;;;;;;;15.35;66.34;102930.97;5114821;27;20031;-59
2022/07/08 01:28:36;;;;;;;7.40;2.95;;;;;;;15.42;66.34;102936.91;5116023;27;20095;-59
2022/07/08 01:31:03;;;;;;;7.72;3.33;;;;;;;15.35;66.71;102941.72;5131926;27;20026;-59
2022/07/08 01:33:29;;;;;;;8.40;3.10;;;;;;;15.36;67.00;102937.22;5133412;27;20035;-60
2022/07/08 01:35:54;;;;;;;10.80;3.20;;;;;;;15.42;66.40;102947.63;5115511;27;20057;-59
2022/07/08 01:38:19;;;;;;;10.02;2.78;;;;;;;15.36;66.39;102931.84;5115692;27;20020;-59
2022/07/08 01:40:45;;;;;;;10.20;3.05;;;;;;;15.35;66.45;102944.38;5114766;27;20120;-59
2022/07/08 01:43:12;;;;;;;9.50;2.95;;;;;;;15.26;66.96;102938.59;5114819;27;20402;-59
2022/07/08 01:45:38;;;;;;;8.80;3.17;;;;;;;15.11;67.29;102938.41;5132988;27;20039;-59
2022/07/08 01:48:05;;;;;;;7.68;3.25;;;;;;;15.10;67.29;102936.66;5114562;27;20042;-59
2022/07/08 01:50:30;;;;;;;8.07;3.35;;;;;;;14.99;67.59;102933.63;5132663;27;20113;-59
2022/07/08 01:52:56;;;;;;;6.57;3.10;;;;;;;15.04;67.67;102931.59;5133120;27;20175;-59
2022/07/08 01:55:22;;;;;;;9.10;3.35;;;;;;;14.99;67.53;102925.59;5131713;27;20031;-59
2022/07/08 01:57:48;;;;;;;11.15;3.55;;;;;;;14.81;68.04;102924.66;5114337;27;20035;-59
2022/07/08 02:00:15;;;;;;;7.78;2.75;;;;;;;14.89;67.96;102914.47;5133005;27;20386;-59
2022/07/08 02:02:41;;;;;;;9.75;3.22;;;;;;;14.84;68.38;102929.03;5133558;27;20385;-59
2022/07/08 02:05:07;;;;;;;9.05;3.03;;;;;;;14.83;68.25;102929.97;5133903;27;20041;-59
2022/07/08 02:07:34;;;;;;;10.55;3.40;;;;;;;14.91;67.82;102925.97;5114483;27;20111;-59
2022/07/08 02:10:02;;;;;;;9.30;3.45;;;;;;;14.86;68.29;102928.00;5133243;27;20019;-60
2022/07/08 02:12:27;;;;;;;9.05;3.38;;;;;;;14.81;68.63;102930.03;5115749;27;20126;-59
2022/07/08 02:15:03;;;;;;;11.98;3.80;;;;;;;14.67;69.17;102936.03;5133401;27;20156;-59
2022/07/08 02:17:40;;;;;;;12.45;3.70;;;;;;;14.70;69.06;102933.19;5114870;27;20026;-59
2022/07/08 02:20:09;;;;;;;10.13;3.20;;;;;;;14.80;69.26;102938.16;5133115;27;20023;-60
2022/07/08 02:22:34;;;;;;;7.65;3.20;;;;;;;14.80;69.37;102930.13;5131002;27;20031;-59
2022/07/08 02:25:00;;;;;;;9.88;3.03;;;;;;;14.82;69.36;102934.44;5115037;27;20038;-59
2022/07/08 02:27:26;;;;;;;9.68;3.40;;;;;;;14.82;69.45;102934.44;5098191;27;20058;-59
2022/07/08 02:29:51;;;;;;;11.50;3.55;;;;;;;14.65;69.90;102924.53;5114805;27;20474;-59
2022/07/08 02:32:17;;;;;;;6.53;3.17;;;;;;;14.81;69.67;102937.19;5113923;27;20541;-59
2022/07/08 02:34:43;;;;;;;8.43;3.30;;;;;;;14.81;69.49;102938.06;5114365;27;20114;-59
2022/07/08 02:37:09;;;;;;;8.40;3.50;;;;;;;14.80;69.77;102943.50;5113343;27;20038;-59
2022/07/08 02:39:37;;;;;;;7.90;3.47;;;;;;;14.83;69.90;102940.69;5133125;27;20020;-59
2022/07/08 02:42:04;;;;;;;9.68;3.20;;;;;;;14.86;69.41;102936.03;5132519;27;20031;-59
2022/07/08 02:44:30;;;;;;;8.93;3.30;;;;;;;14.76;69.62;102946.34;5132471;27;20031;-59
2022/07/08 02:46:55;;;;;;;9.68;3.70;;;;;;;14.73;69.73;102932.19;5114212;27;20051;-59
2022/07/08 02:49:21;;;;;;;9.00;3.42;;;;;;;14.75;69.99;102933.88;5097361;27;20039;-59
2022/07/08 02:51:47;;;;;;;12.30;3.63;;;;;;;14.72;69.97;102927.78;5109846;27;20027;-59
2022/07/08 02:54:12;;;;;;;10.10;3.88;;;;;;;14.62;70.24;102937.19;5132896;27;20434;-59
2022/07/08 02:56:38;;;;;;;12.10;3.72;;;;;;;14.64;70.19;102929.94;5132428;27;20061;-59
2022/07/08 02:59:04;;;;;;;8.27;3.28;;;;;;;14.65;70.02;102929.91;5114534;27;20023;-59
2022/07/08 03:01:32;;;;;;;7.15;3.13;;;;;;;14.57;70.34;102945.44;5132573;27;20015;-59
2022/07/08 03:03:57;;;;;;;5.30;2.88;;;;;;;14.57;70.44;102945.44;5096503;27;20031;-59
2022/07/08 03:06:26;;;;;;;12.25;3.90;;;;;;;14.63;70.05;102942.47;5130760;27;20057;-59
2022/07/08 03:08:52;;;;;;;6.30;3.03;;;;;;;14.69;69.94;102941.31;5132438;27;20050;-59
2022/07/08 03:11:17;;;;;;;5.72;2.80;;;;;;;14.58;70.27;102938.28;5132199;27;20054;-59
2022/07/08 03:13:43;;;;;;;9.85;3.42;;;;;;;14.47;70.62;102953.00;5113741;27;20091;-59
2022/07/08 03:16:08;;;;;;;8.52;2.95;;;;;;;14.47;70.73;102953.00;5079159;27;20046;-59
2022/07/08 03:18:35;;;;;;;9.88;3.58;;;;;;;14.52;70.97;102958.16;5131724;27;20058;-59
2022/07/08 03:21:03;;;;;;;13.88;3.85;;;;;;;14.50;70.37;102960.00;5131592;27;20019;-60
2022/07/08 03:23:28;;;;;;;5.63;3.40;;;;;;;14.48;71.20;102960.09;5132443;27;20509;-59
2022/07/08 03:25:54;;;;;;;10.15;3.63;;;;;;;14.54;71.00;102943.78;5132372;27;20054;-59
2022/07/08 03:28:19;;;;;;;14.02;3.35;;;;;;;14.52;70.83;102945.66;5096786;27;20039;-59
2022/07/08 03:30:45;;;;;;;12.88;3.40;;;;;;;14.56;70.66;102942.81;5131602;27;20027;-59
2022/07/08 03:33:10;;;;;;;9.95;3.50;;;;;;;14.47;70.86;102944.06;5129528;27;20449;-59
2022/07/08 03:35:36;;;;;;;8.23;3.28;;;;;;;14.54;70.56;102951.81;5112654;27;20027;-59
2022/07/08 03:38:02;;;;;;;10.05;3.97;;;;;;;14.40;70.91;102954.22;5094789;27;20046;-59
2022/07/08 03:43:12;;;;;;;7.63;3.67;;;;;;;14.49;70.34;102960.94;5131365;27;20439;-59
2022/07/08 03:45:37;;;;;;;10.70;3.40;;;;;;;14.43;70.33;102955.88;5131675;27;20027;-59
2022/07/08 03:48:03;;;;;;;11.10;3.58;;;;;;;14.47;70.23;102963.72;5131462;27;20095;-60
2022/07/08 03:50:29;;;;;;;9.13;3.50;;;;;;;14.43;70.33;102954.06;5080869;27;20104;-59
2022/07/08 03:52:54;;;;;;;7.20;3.22;;;;;;;14.38;70.46;102961.44;5130508;27;20106;-59
2022/07/08 03:55:23;;;;;;;8.85;3.10;;;;;;;14.31;70.63;102950.13;5096523;27;20209;-59
2022/07/08 03:57:49;;;;;;;12.02;3.75;;;;;;;14.26;70.56;102952.16;5130441;27;20087;-59
2022/07/08 04:00:15;;;;;;;11.82;3.28;;;;;;;14.21;71.09;102959.53;5130347;27;20022;-59
2022/07/08 04:02:40;;;;;;;11.35;3.40;;;;;;;14.18;71.16;102956.13;5096380;28;20081;-59
2022/07/08 04:05:06;;;;;;;8.20;3.72;;;;;;;14.21;71.24;102954.19;5094240;27;20492;-59
2022/07/08 04:07:33;;;;;;;12.18;3.72;;;;;;;14.10;71.47;102956.47;5095498;28;20079;-60
2022/07/08 04:09:58;;;;;;;9.35;3.58;;;;;;;14.17;71.10;102955.22;5130111;28;20112;-59
2022/07/08 04:12:24;;;;;;;7.82;3.47;;;;;;;14.20;71.04;102959.59;5130226;28;20031;-59
2022/07/08 04:14:49;;;;;;;10.07;3.50;;;;;;;14.09;71.62;102960.09;5131251;28;20072;-59
2022/07/08 04:17:15;;;;;;;9.70;3.67;;;;;;;14.09;71.67;102957.41;5130815;28;20051;-59
2022/07/08 04:19:41;;;;;;;8.00;3.28;;;;;;;13.98;72.02;102960.53;5112569;28;20035;-59
2022/07/08 04:22:07;;;;;;;11.65;3.80;;;;;;;13.99;72.05;102959.59;5130306;28;20367;-59
2022/07/08 04:24:35;;;;;;;10.63;4.65;;;;;;;14.00;71.91;102961.34;5131123;28;20031;-60
2022/07/08 04:27:00;;;;;;;8.38;4.00;;;;;;;14.03;71.97;102954.97;5130076;28;20443;-60
2022/07/08 04:29:26;;;;;;;11.07;4.68;;;;;;;13.98;72.12;102963.22;5128030;28;20034;-59
2022/07/08 04:31:52;;;;;;;9.68;4.00;;;;;;;13.94;72.48;102964.28;5083301;28;20068;-59
2022/07/08 04:34:17;;;;;;;9.65;3.95;;;;;;;13.87;72.78;102960.13;5130456;28;20060;-59
2022/07/08 04:36:43;;;;;;;11.15;4.40;;;;;;;13.98;72.39;102973.91;5089213;28;20031;-60
2022/07/08 04:39:09;;;;;;;8.43;4.15;;;;;;;13.85;72.88;102970.91;5131307;28;20405;-60
2022/07/08 04:41:34;;;;;;;10.73;4.65;;;;;;;14.00;72.40;102971.16;5111280;28;20474;-59
2022/07/08 04:44:00;;;;;;;10.77;4.68;;;;;;;13.95;72.52;102982.06;5130635;28;20110;-60
2022/07/08 04:46:26;;;;;;;14.50;4.55;;;;;;;14.05;72.31;102988.75;5093555;28;20114;-60
2022/07/08 04:48:51;;;;;;;13.82;4.80;;;;;;;14.05;72.15;102977.19;5130418;28;20041;-59
2022/07/08 04:51:17;;;;;;;7.72;4.15;;;;;;;14.12;72.28;102992.06;5128868;28;20103;-59
2022/07/08 04:53:43;;;;;;;10.70;4.63;;;;;;;14.17;72.41;102986.50;5112155;28;20034;-59
2022/07/08 04:56:08;;;;;;;16.45;5.10;;;;;;;14.23;72.16;102994.25;5112671;28;20023;-60
2022/07/08 04:58:35;;;;;;;11.73;4.28;;;;;;;14.29;72.14;102989.50;5111921;28;20020;-59
2022/07/08 05:01:00;;;;;;;9.13;4.22;;;;;;;14.34;71.96;103005.34;5111264;28;20435;-59
2022/07/08 05:03:26;;;;;;;10.93;4.82;;;;;;;14.38;71.57;102992.69;5128803;27;20401;-60
2022/07/08 05:05:52;;;;;;;12.35;4.85;;;;;;;14.48;71.62;102999.38;5093327;27;20031;-59
2022/07/08 05:08:19;;;;;;;13.57;4.55;;;;;;;14.45;71.69;102991.50;5116549;27;20035;-59
2022/07/08 05:10:45;;;;;;;12.10;4.80;;;;;;;14.56;71.54;102994.59;5134486;27;20027;-59
2022/07/08 05:13:12;;;;;;;10.05;4.32;;;;;;;14.64;71.60;102994.22;5134422;27;20033;-59
2022/07/08 05:15:38;;;;;;;15.30;5.05;;;;;;;14.68;71.35;103007.44;5098918;27;20470;-61
2022/07/08 05:18:06;;;;;;;12.77;4.80;;;;;;;14.72;71.40;103000.13;5131984;27;20083;-61
2022/07/08 05:20:32;;;;;;;11.88;5.05;;;;;;;14.85;71.07;102995.03;5130223;27;20501;-60
2022/07/08 05:22:58;;;;;;;14.32;4.80;;;;;;;14.95;70.58;103004.41;5133841;27;20133;-60
2022/07/08 05:25:26;;;;;;;9.32;4.50;;;;;;;14.94;70.82;102999.97;5116155;27;20487;-59
2022/07/08 05:27:51;;;;;;;11.75;4.60;;;;;;;15.09;70.58;103006.41;5114627;27;20087;-59
2022/07/08 05:30:17;;;;;;;14.52;4.80;;;;;;;15.14;70.02;103004.38;5114691;27;20787;-59
2022/07/08 05:32:45;;;;;;;9.20;4.10;;;;;;;15.24;69.45;103020.94;5132325;27;20077;-59
2022/07/08 05:35:11;;;;;;;12.52;4.28;;;;;;;15.28;69.19;103012.66;5096293;27;20027;-60
2022/07/08 05:37:41;;;;;;;9.30;4.15;;;;;;;15.21;69.75;103004.03;5131897;27;20035;-59
2022/07/08 05:40:11;;;;;;;10.25;4.47;;;;;;;15.27;69.58;103020.78;5134155;27;20537;-60
2022/07/08 05:42:37;;;;;;;13.32;4.50;;;;;;;15.35;69.16;103014.09;5115139;27;20019;-59
2022/07/08 05:45:09;;;;;;;16.42;4.88;;;;;;;15.41;69.60;103019.16;5115330;27;20027;-60
2022/07/08 05:47:35;;;;;;;10.40;4.60;;;;;;;15.48;69.17;103011.69;5132784;27;20050;-59
2022/07/08 05:50:01;;;;;;;13.30;4.53;;;;;;;15.60;68.62;103027.16;5115402;27;20027;-59
2022/07/08 05:52:26;;;;;;;12.55;4.63;;;;;;;15.62;68.82;103029.78;5133094;27;20138;-59
2022/07/08 05:54:53;;;;;;;14.50;5.20;;;;;;;15.67;68.75;103025.94;5098003;27;20110;-59
2022/07/08 05:57:19;;;;;;;10.35;4.45;;;;;;;15.75;68.22;103035.44;5133840;27;20466;-59
2022/07/08 05:59:47;;;;;;;11.80;4.43;;;;;;;15.75;68.53;103033.63;5111973;27;20115;-60
2022/07/08 06:02:14;;;;;;;13.05;4.72;;;;;;;15.88;68.11;103033.84;5131885;27;20027;-59
2022/07/08 06:04:40;;;;;;;16.65;4.35;;;;;;;15.94;68.71;103041.59;5114490;27;20084;-59
2022/07/08 06:07:05;;;;;;;17.08;4.60;;;;;;;15.84;68.59;103022.41;5095003;27;20027;-59
2022/07/08 06:09:31;;;;;;;12.00;4.25;;;;;;;15.93;68.53;103034.50;5098064;27;20083;-60
2022/07/08 06:11:56;;;;;;;14.80;4.05;;;;;;;15.96;68.10;103037.03;5133393;27;20506;-60
2022/07/08 06:14:23;;;;;;;11.73;3.42;;;;;;;16.11;67.82;103043.44;5129424;27;20466;-61
2022/07/08 06:16:48;;;;;;;12.30;3.05;;;;;;;16.19;66.83;103040.38;5130803;27;20087;-61
2022/07/08 06:19:17;;;;;;;9.80;3.63;;;;;;;16.28;67.66;103042.56;5131620;27;20098;-60
2022/07/08 06:21:44;;;;;;;16.88;3.38;;;;;;;16.39;66.69;103053.63;5131728;27;20496;-60
2022/07/08 06:24:10;;;;;;;9.55;2.60;;;;;;;16.47;66.62;103045.16;5131923;27;20660;-60
2022/07/08 06:26:36;;;;;;;8.77;2.97;;;;;;;16.55;65.78;103048.31;5132785;27;20025;-60
2022/07/08 06:29:03;;;;;;;11.90;3.10;;;;;;;16.54;66.17;103042.06;5133069;27;20027;-60
2022/07/08 06:31:28;;;;;;;7.85;2.97;;;;;;;16.59;66.12;103044.53;5114767;27;20351;-60
2022/07/08 06:33:58;;;;;;;15.82;3.40;;;;;;;16.68;65.95;103044.03;5131242;27;20079;-60
2022/07/08 06:36:24;;;;;;;11.45;3.00;;;;;;;16.65;65.64;103043.28;5129720;27;20027;-60
2022/07/08 06:38:52;;;;;;;11.75;3.28;;;;;;;16.67;65.83;103041.41;5131443;27;20083;-60
2022/07/08 06:41:20;;;;;;;14.32;3.60;;;;;;;16.76;65.43;103040.94;5113737;27;20027;-60
2022/07/08 06:43:47;;;;;;;12.18;3.20;;;;;;;16.87;64.88;103043.06;5132224;27;20038;-60
2022/07/08 06:46:13;;;;;;;11.63;2.95;;;;;;;16.91;65.35;103034.75;5133082;27;20025;-61
2022/07/08 06:48:39;;;;;;;10.80;2.63;;;;;;;17.01;64.51;103053.91;5132573;27;20473;-60
2022/07/08 06:51:04;;;;;;;9.15;2.88;;;;;;;17.06;64.02;103053.66;5132002;27;20023;-60
2022/07/08 06:54:34;;;;;;;8.07;2.80;;;;;;;17.16;63.47;103058.44;5114400;27;20027;-60
2022/07/08 06:56:16;;;;;;;8.32;2.72;;;;;;;17.22;63.55;103044.66;5132922;27;20030;-60
2022/07/08 06:58:41;;;;;;;11.60;2.55;;;;;;;17.23;63.88;103050.91;5128792;27;20439;-60
2022/07/08 07:01:07;;;;;;;6.35;2.58;;;;;;;17.15;64.02;103050.47;5114378;27;20031;-60
2022/07/08 07:03:36;;;;;;;10.02;2.70;;;;;;;17.00;63.85;103050.38;5131510;27;21273;-60
2022/07/08 07:06:01;;;;;;;11.07;2.65;;;;;;;16.97;63.57;103057.72;5075427;27;20023;-60
2022/07/08 07:08:27;;;;;;;10.23;2.83;;;;;;;17.09;63.87;103058.84;5110718;27;20371;-60
2022/07/08 07:10:53;;;;;;;7.72;2.55;;;;;;;17.28;63.14;103056.88;5093180;27;20047;-61
2022/07/08 07:13:19;;;;;;;9.15;2.75;;;;;;;17.36;63.19;103043.88;5129640;27;20139;-60
2022/07/08 07:15:46;;;;;;;9.10;2.45;;;;;;;17.64;62.90;103066.50;5131133;27;20526;-60
2022/07/08 07:18:12;;;;;;;8.35;2.55;;;;;;;17.68;61.89;103060.00;5112564;27;20121;-60
2022/07/08 07:20:39;;;;;;;14.23;2.53;;;;;;;17.76;61.93;103057.72;5130841;27;20135;-60
2022/07/08 07:23:07;;;;;;;10.70;2.80;;;;;;;17.83;61.54;103058.28;5130995;27;20442;-61
2022/07/08 07:25:32;;;;;;;8.82;2.25;;;;;;;17.86;61.36;103058.97;5096174;27;20031;-61
2022/07/08 07:27:58;;;;;;;8.55;2.67;;;;;;;18.16;60.35;103060.81;5113177;27;20046;-61
2022/07/08 07:30:25;;;;;;;9.70;2.65;;;;;;;18.28;59.81;103067.28;5131767;27;20149;-60
2022/07/08 07:32:50;;;;;;;6.80;2.60;;;;;;;18.27;59.92;103066.41;5131600;27;20031;-60
2022/07/08 07:35:16;;;;;;;8.50;2.13;;;;;;;18.40;60.23;103058.44;5130036;27;20074;-60
2022/07/08 07:37:44;;;;;;;9.30;2.60;;;;;;;18.53;59.54;103061.25;5110956;27;20550;-60
2022/07/08 07:40:10;;;;;;;11.07;3.00;;;;;;;18.57;58.62;103060.97;5108780;27;20038;-60
2022/07/08 07:42:36;;;;;;;9.32;2.80;;;;;;;18.71;57.51;103059.28;5125247;27;20471;-60
2022/07/08 07:45:05;;;;;;;8.07;2.95;;;;;;;18.75;58.24;103052.75;5128331;27;20019;-71
2022/07/08 07:47:47;;;;;;;7.50;2.40;;;;;;;18.86;57.89;103052.94;5085534;28;20052;-67
2022/07/08 07:50:12;;;;;;;12.23;2.75;;;;;;;18.89;58.99;103058.16;5070141;28;20059;-59
2022/07/08 07:52:38;;;;;;;9.80;2.70;;;;;;;19.02;59.07;103066.31;5070275;28;20048;-60
2022/07/08 07:55:11;;;;;;;8.70;2.80;;;;;;;19.15;57.36;103050.19;5069064;28;20514;-60
2022/07/08 07:57:39;;;;;;;11.88;3.10;;;;;;;19.23;56.72;103050.59;5071142;28;20605;-61
2022/07/08 08:00:08;;;;;;;10.30;2.72;;;;;;;19.24;58.74;103037.00;5072056;28;20039;-61
2022/07/08 08:02:34;;;;;;;9.73;2.40;;;;;;;19.33;55.60;103051.72;5088865;28;20040;-61
2022/07/08 08:04:59;;;;;;;10.85;3.03;;;;;;;19.48;55.79;103044.47;5071874;28;20032;-60
2022/07/08 08:07:25;;;;;;;8.68;3.05;;;;;;;19.54;56.40;103052.16;5055074;28;20047;-60
2022/07/08 08:09:51;;;;;;;12.02;2.85;;;;;;;19.58;55.30;103055.50;5053315;28;20044;-60
2022/07/08 08:12:16;;;;;;;11.32;3.30;;;;;;;19.49;56.88;103055.16;5071958;28;20130;-61
2022/07/08 08:14:46;;;;;;;11.75;2.50;;;;;;;19.51;56.52;103061.31;5088411;28;20111;-60
2022/07/08 08:17:12;;;;;;;11.57;3.15;;;;;;;19.53;55.48;103050.44;5088812;28;20032;-60
2022/07/08 08:19:38;;;;;;;10.23;2.72;;;;;;;19.78;54.61;103068.59;5091865;28;20034;-60
2022/07/08 08:22:03;;;;;;;7.53;2.38;;;;;;;19.73;55.04;103063.47;5113047;28;20028;-60
2022/07/08 08:24:29;;;;;;;10.23;2.90;;;;;;;19.65;55.08;103062.28;5095525;28;20043;-60
2022/07/08 08:26:54;;;;;;;8.55;2.83;;;;;;;19.67;55.23;103060.34;5113371;28;20553;-60
2022/07/08 08:29:20;;;;;;;9.85;2.63;;;;;;;19.70;55.77;103066.38;5107854;28;20038;-60
2022/07/08 08:31:46;;;;;;;10.43;2.78;;;;;;;19.82;54.41;103066.53;5129637;28;20140;-60
2022/07/08 08:34:11;;;;;;;9.75;2.65;;;;;;;20.03;55.90;103051.59;5113235;28;20528;-60
2022/07/08 08:36:36;;;;;;;11.00;2.72;;;;;;;20.07;55.44;103065.78;5112035;28;20038;-60
2022/07/08 08:39:02;;;;;;;10.38;2.58;;;;;;;20.24;54.93;103064.63;5113058;27;20082;-61
2022/07/08 08:41:29;;;;;;;10.25;2.60;;;;;;;20.18;55.21;103060.50;5135590;27;20039;-59
2022/07/08 08:43:54;;;;;;;9.05;2.50;;;;;;;20.18;54.82;103069.47;5135511;27;20026;-59
2022/07/08 08:46:24;;;;;;;8.98;2.90;;;;;;;20.30;53.64;103073.16;5093828;27;20027;-59
2022/07/08 08:48:55;;;;;;;11.18;2.42;;;;;;;20.33;51.25;103055.88;5116478;27;20095;-59
2022/07/08 08:51:21;;;;;;;10.00;2.55;;;;;;;20.53;52.70;103058.09;5134922;27;20482;-59
2022/07/08 08:53:47;;;;;;;9.10;2.38;;;;;;;20.66;52.20;103060.78;5116749;27;20023;-59
2022/07/08 08:56:18;;;;;;;9.48;2.58;;;;;;;20.77;52.34;103047.38;5135099;27;20397;-59
2022/07/08 08:58:46;;;;;;;9.63;2.63;;;;;;;21.01;50.33;103054.69;5135753;27;20400;-59
2022/07/08 09:01:13;;;;;;;9.48;2.53;;;;;;;20.91;50.51;103040.94;5117008;27;20366;-59
2022/07/08 09:03:41;;;;;;;9.05;2.58;;;;;;;21.00;51.50;103048.44;5135521;27;20027;-60
2022/07/08 09:06:07;;;;;;;7.05;2.22;;;;;;;21.16;51.20;103048.16;5116094;27;20038;-59
2022/07/08 09:08:33;;;;;;;7.30;2.38;;;;;;;21.18;51.48;103035.38;5099317;27;20023;-59
2022/07/08 09:10:59;;;;;;;9.10;2.58;;;;;;;21.27;49.96;103033.84;5135297;27;20381;-59
2022/07/08 09:13:28;;;;;;;9.32;2.30;;;;;;;21.35;49.86;103041.38;5116523;27;20030;-59
2022/07/08 09:15:58;;;;;;;12.00;2.77;;;;;;;21.51;49.25;103042.03;5134911;27;20107;-59
2022/07/08 09:18:32;;;;;;;9.82;2.50;;;;;;;21.48;48.67;103040.41;5116942;27;20310;-59
2022/07/08 09:20:59;;;;;;;7.43;2.13;;;;;;;21.64;49.57;103037.41;5134441;27;20494;-59
2022/07/08 09:23:27;;;;;;;12.73;2.70;;;;;;;21.76;49.82;103031.03;5135091;27;20023;-59
2022/07/08 09:25:54;;;;;;;;;;;;;;;22.14;50.44;103048.06;5134981;27;20124;-60
2022/07/08 09:28:30;;;;;;;10.02;2.80;;;;;;;22.19;48.61;103049.47;5134901;27;19999;-60
2022/07/08 09:30:58;;;;;;;7.72;2.40;;;;;;;22.06;48.02;103050.50;5116347;27;20027;-60
2022/07/08 09:33:25;;;;;;;8.70;2.28;;;;;;;22.22;48.63;103046.53;5134908;27;20382;-60
2022/07/08 09:35:50;;;;;;;10.90;2.63;;;;;;;;;;5115363;27;20034;-58
2022/07/08 09:38:18;;;;;;;10.30;2.53;;;;;;;22.09;48.63;103034.88;5115802;27;20402;-57
2022/07/08 09:41:06;;;;;;;11.70;2.90;;;;;;;22.29;49.96;103043.31;5134426;27;20076;-59
2022/07/08 09:43:33;;;;;;;10.80;2.75;;;;;;;22.21;49.58;103046.66;5134627;27;20030;-58
2022/07/08 09:46:07;;;;;;;6.20;2.30;;;;;;;22.07;49.40;103039.56;5133908;27;20419;-59
2022/07/08 09:48:33;;;;;;;8.93;2.50;;;;;;;21.84;50.44;103040.44;5134144;27;20096;-58
2022/07/08 09:51:00;;;;;;;13.32;2.63;;;;;;;21.74;51.02;103037.59;5114377;27;20727;-58
2022/07/08 09:53:28;;;;;;;13.32;2.65;;;;;;;21.84;50.51;103044.03;5098992;27;20069;-58
2022/07/08 09:55:55;;;;;;;10.65;2.30;;;;;;;21.92;49.45;103046.16;5115745;27;20019;-57
2022/07/08 09:58:26;;;;;;;8.75;2.50;;;;;;;21.95;49.25;103041.38;5134414;27;20102;-58
2022/07/08 10:00:53;;;;;;;10.15;2.60;;;;;;;22.15;48.44;103041.69;5134058;27;20358;-58
2022/07/08 10:03:23;;;;;;;12.05;3.08;;;;;;;22.20;48.38;103043.06;5134287;27;20049;-58
2022/07/08 10:05:51;;;;;;;12.82;2.60;;;;;;;22.12;48.82;103037.34;5114727;27;20015;-59
2022/07/08 10:08:18;;;;;;;8.18;2.17;;;;;;;22.34;50.36;103050.13;5133775;27;20035;-59
2022/07/08 10:10:45;;;;;;;7.88;2.58;;;;;;;22.06;48.77;103050.50;5134098;27;20538;-60
2022/07/08 10:13:11;;;;;;;6.40;2.33;;;;;;;22.21;49.99;103049.38;5133997;27;20110;-60
2022/07/08 10:15:38;;;;;;;6.25;2.35;;;;;;;22.20;49.19;103048.47;5129643;27;20019;-61
2022/07/08 10:18:20;;;;;;;7.68;2.70;;;;;;;22.33;48.19;103053.84;5112713;27;20033;-59
2022/07/08 10:20:55;;;;;;;7.55;2.10;;;;;;;22.60;48.45;103050.78;5127170;27;20060;-58
2022/07/08 10:23:56;;;;;;;10.43;2.38;;;;;;;22.95;49.16;103049.84;5131882;27;20214;-57
2022/07/08 10:26:30;;;;;;;9.68;2.53;;;;;;;22.85;49.75;103047.00;5030075;28;20037;-57
2022/07/08 10:29:10;;;;;;;33.80;4.13;;;;;;;22.84;47.88;103041.66;5118043;27;20036;-57
2022/07/08 10:31:44;;;;;;;22.33;4.47;;;;;;;23.13;48.75;103047.47;5132430;27;20042;-65
2022/07/08 10:34:12;;;;;;;8.10;2.50;;;;;;;23.25;49.81;103034.75;5133175;27;20031;-67
2022/07/08 10:36:45;;;;;;;6.75;2.25;;;;;;;23.40;47.21;103040.78;5113411;27;20027;-60
2022/07/08 10:39:12;;;;;;;9.35;2.65;;;;;;;23.74;46.78;103038.84;5130975;27;20015;-60
2022/07/08 10:41:56;;;;;;;8.50;2.38;;;;;;;23.96;46.93;103035.16;5094628;27;20079;-60
2022/07/08 10:44:48;;;;;;;7.00;2.15;;;;;;;24.19;46.95;103033.19;5132926;27;20035;-60
2022/07/08 10:47:28;;;;;;;7.45;2.42;;;;;;;24.23;45.56;103029.19;5121175;27;20039;-60
2022/07/08 10:50:04;;;;;;;9.18;2.40;;;;;;;24.53;44.51;103030.25;5131776;27;20019;-60
2022/07/08 10:52:38;;;;;;;7.85;2.38;;;;;;;24.55;45.62;103022.81;5132692;27;20038;-60
2022/07/08 10:55:15;;;;;;;11.02;2.10;;;;;;;24.72;44.63;103032.22;5133114;27;20478;-60
2022/07/08 10:57:57;;;;;;;6.00;2.22;;;;;;;24.82;44.67;103030.38;5114140;27;20070;-60
2022/07/08 11:00:23;;;;;;;9.32;2.08;;;;;;;24.95;43.29;103019.28;5114485;27;20015;-60
2022/07/08 11:02:50;;;;;;;8.85;2.35;;;;;;;25.17;44.24;103015.50;5132657;27;20031;-60
2022/07/08 11:05:42;;;;;;;4.93;1.77;;;;;;;25.53;44.94;103031.19;5132549;27;20019;-60
2022/07/08 11:08:20;;;;;;;7.72;2.53;;;;;;;25.64;45.20;103029.31;5113139;27;20068;-60
2022/07/08 11:10:49;;;;;;;8.82;2.20;;;;;;;25.43;42.55;103032.19;5113770;27;20106;-60
2022/07/08 11:13:15;;;;;;;7.85;2.00;;;;;;;25.50;43.20;103026.03;5132462;27;20026;-60
2022/07/08 11:15:41;;;;;;;7.80;1.77;;;;;;;25.49;41.27;103028.88;5132360;27;20034;-60
2022/07/08 11:18:07;;;;;;;5.68;1.85;;;;;;;25.67;42.33;103034.50;5097251;27;20023;-60
2022/07/08 11:20:33;;;;;;;7.50;1.77;;;;;;;25.79;41.91;103025.16;5114053;27;20026;-60
2022/07/08 11:23:04;;;;;;;5.38;1.83;;;;;;;26.14;41.59;103023.72;5129198;27;20031;-60
2022/07/08 11:25:30;;;;;;;7.85;2.10;;;;;;;26.30;41.04;103024.00;5112090;27;20110;-60